OIAG  Aghajari  Airport

Iran

Add Bookmark
Status
Operational
Latitude Longitude
30° 44' 39" N 49° 40' 37" E
30.744400 49.677200
Local (DST + 5) UTC (GMT + 4)
Mar 4, 2015 02:04 Mar 3, 2015 22:34
Sunrise-Sunset Local UTC
Begin Civil Twilight 06:08 02:38
Sunrise 06:33 03:03
Sunset 06:12 14:42
End Civil Twilight 06:37 15:07

Current Weather

METAR Observed VFR
OIAG 032000Z 17002KT CAVOK 17/02 Q1015 Tue, Mar 3, 2015 @ 20:00 UTC
(2 Hours, 34 Minutes ago)
Visual Flight Rules
Wind Visibility Clouds Conditions
170° at 2 knots (4 kph) 10 km or more
  • Clear skies
  • No significant weather
Temperatures Readings Precipitation
Current Temp 17°C (63°F)
Dewpoint 2°C (36°F)
Humidity 37%
Altimeter 29.97"Hg
Sea Level Pressure 1015mb
Field Elevation 95.14'
None Recorded

Additional weather within a 92.6km radius of OIAG

Map ICAO Location
OIAM 54.4km W (248°)

24 Hour Weather History

Loading
-

24 Hour Weather Graphs

Loading
-

CheckWX.com is intended as a tool to help pilots better visualize weather data. It is not intended as a substitute for an official weather briefing obtained from a Flight Service Station. CheckWX.com does not meet the FAA requirements for an official pre-flight weather briefing. Therefore, it's important that pilots still call and obtain an official FSS pre-flight weather briefing.